This is the latest recevied weather packets stored in our database for station/object WB5LFS-1. If no packets are shown the sender has not sent any weather packets the latest 1 day(s).
| Time | Temp. | Humidity | Pressure | Rain* | Wind** | Luminosity | Snow |
|---|---|---|---|---|---|---|---|
| 1777992108 | 23.33° C | 53% | 1015.1 hPa | 0 mm | 0 m/s | - | - |
| 1777991208 | 22.22° C | 60% | 1015.1 hPa | 0 mm | 0 m/s | - | - |
| 1777990308 | 21.67° C | 55% | 1015.2 hPa | 0 mm | 0 m/s | - | - |
| 1777989408 | 21.11° C | 56% | 1015.3 hPa | 0 mm | 0.45 m/s, 173° | - | - |
| 1777988508 | 20.56° C | 59% | 1015.4 hPa | 0 mm | 0.45 m/s, 280° | - | - |
| 1777987608 | 20.56° C | 58% | 1015.5 hPa | 0 mm | 0.45 m/s, 112° | - | - |
| 1777986708 | 20° C | 60% | 1015.7 hPa | 0 mm | 0 m/s | - | - |
| 1777985808 | 19.44° C | 63% | 1015.5 hPa | 0 mm | 0 m/s | - | - |
| 1777984908 | 18.89° C | 63% | 1015.7 hPa | 0 mm | 0 m/s | - | - |
| 1777984008 | 18.89° C | 64% | 1015.6 hPa | 0 mm | 0 m/s | - | - |
| 1777983108 | 18.33° C | 65% | 1015.5 hPa | 0 mm | 0 m/s | - | - |
| 1777982208 | 17.22° C | 68% | 1015.5 hPa | 0 mm | 0 m/s | - | - |
| 1777981308 | 16.67° C | 70% | 1015.3 hPa | 0 mm | 0 m/s | - | - |
| 1777980408 | 16.11° C | 71% | 1015.2 hPa | 0 mm | 0 m/s | - | - |
| 1777979509 | 15° C | 74% | 1015.1 hPa | 0 mm | 0 m/s | - | - |
| 1777978608 | 15° C | 75% | 1014.9 hPa | 0 mm | 0 m/s | - | - |
| 1777977709 | 14.44° C | 75% | 1014.9 hPa | 0 mm | 0 m/s | - | - |
| 1777976809 | 14.44° C | 76% | 1014.8 hPa | 0 mm | 0 m/s | - | - |
| 1777975909 | 13.89° C | 77% | 1014.6 hPa | 0 mm | 0 m/s | - | - |
| 1777975009 | 14.44° C | 76% | 1014.5 hPa | 0 mm | 0 m/s | - | - |
| 1777974109 | 14.44° C | 75% | 1014.3 hPa | 0 mm | 0 m/s | - | - |
| 1777973209 | 14.44° C | 75% | 1014.4 hPa | 0 mm | 0 m/s | - | - |
| 1777972309 | 15° C | 73% | 1014.3 hPa | 0 mm | 0 m/s | - | - |
| 1777971409 | 15° C | 73% | 1014.1 hPa | 0 mm | 0 m/s | - | - |
| 1777970516 | 15.56° C | 72% | 1014.1 hPa | 0 mm | 0 m/s | - | - |
* Rain latest hour (hover to see other rain measurements)
** Current wind speed in m/s (hover to see current wind gust speed)